Погода Комалана неделю

Колима, Мексика

21 - 27 февраля
  • 21февраля
    Сегодня
    +16°
    +32°
    Ясно и безоблачно
    ВремяПогодаТемператураВлажностьДавлениеВетер, м/сВероятность осадков
    00:00Ясно и безоблачно+17°C72 %710 мм1.3 м/с2 %
    03:00Ясно и безоблачно+19°C69 %709 мм1.4 м/с2 %
    06:00Ясно и безоблачно+17°C75 %709 мм1.7 м/с2 %
    09:00Ясно и безоблачно+22°C58 %711 мм1.6 м/с2 %
    12:00Ясно и безоблачно+28°C37 %710 мм2.1 м/с2 %
    15:00Ясно и безоблачно+32°C33 %708 мм2.9 м/с2 %
    18:00Ясно и безоблачно+27°C54 %708 мм6.0 м/с2 %
    21:00Ясно и безоблачно+22°C72 %708 мм0.8 м/с2 %
  • 22февраля
    Четверг
    +15°
    +32°
    Практически безоблачно
    ВремяПогодаТемператураВлажностьДавлениеВетер, м/сВероятность осадков
    00:00Ясно и безоблачно+18°C74 %708 мм0.8 м/с2 %
    03:00Ясно и безоблачно+17°C74 %706 мм1.1 м/с2 %
    06:00Ясно и безоблачно+16°C69 %706 мм2.0 м/с2 %
    09:00Ясно и безоблачно+21°C56 %708 мм1.8 м/с2 %
    12:00Ясно и безоблачно+29°C30 %708 мм3.0 м/с2 %
    15:00Практически безоблачно+30°C39 %706 мм3.8 м/с2 %
    18:00Ясно и безоблачно+26°C62 %706 мм5.7 м/с2 %
    21:00Ясно и безоблачно+21°C78 %706 мм0.6 м/с2 %
  • 23февраля
    Пятница
    +17°
    +31°
    Практически безоблачно
    ВремяПогодаТемператураВлажностьДавлениеВетер, м/сВероятность осадков
    00:00Ясно и безоблачно+19°C64 %705 мм1.2 м/с2 %
    03:00Ясно и безоблачно+18°C58 %704 мм2.1 м/с2 %
    06:00Ясно и безоблачно+16°C60 %703 мм2.2 м/с2 %
    09:00Ясно и безоблачно+21°C52 %706 мм1.5 м/с2 %
    12:00Ясно и безоблачно+29°C24 %706 мм3.0 м/с2 %
    15:00Практически безоблачно+30°C53 %704 мм3.2 м/с2 %
    18:00Ясно и безоблачно+26°C71 %705 мм5.8 м/с2 %
    21:00Ясно и безоблачно+21°C87 %705 мм0.7 м/с1 %
  • 24февраля
    Суббота
    +17°
    +30°
    Облачно с прояснениями
    ВремяПогодаТемператураВлажностьДавлениеВетер, м/сВероятность осадков
    00:00Ясно и безоблачно+20°C82 %706 мм0.9 м/с1 %
    03:00Ясно и безоблачно+18°C65 %705 мм0.7 м/с1 %
    06:00Практически безоблачно+17°C65 %705 мм0.3 м/с1 %
    09:00Практически безоблачно+20°C62 %708 мм0.2 м/с1 %
    12:00Облачно с прояснениями+27°C43 %708 мм3.4 м/с1 %
    15:00Облачно с прояснениями+29°C52 %707 мм3.3 м/с2 %
    18:00Облачно с прояснениями+26°C75 %707 мм6.0 м/с2 %
    21:00Практически безоблачно+21°C86 %708 мм0.5 м/с1 %
  • 25февраля
    Воскресенье
    +17°
    +30°
    Практически безоблачно
    ВремяПогодаТемператураВлажностьДавлениеВетер, м/сВероятность осадков
    00:00Ясно и безоблачно+20°C78 %707 мм0.7 м/с1 %
    03:00Небольшая облачность+19°C77 %707 мм0.8 м/с1 %
    06:00Практически безоблачно+17°C76 %707 мм0.8 м/с1 %
    09:00Практически безоблачно+21°C62 %709 мм0.1 м/с1 %
    12:00Небольшая облачность+28°C53 %710 мм3.3 м/с1 %
    15:00Практически безоблачно+30°C53 %708 мм3.3 м/с7 %
    18:00Ясно и безоблачно+26°C75 %708 мм6.1 м/с2 %
    21:00Ясно и безоблачно+21°C93 %708 мм0.7 м/с1 %
Мы используем cookies
Соглашаюсь